createdAt,value
2022-09-28T00:01:23.836Z,10.32
2022-09-28T00:05:35.597Z,10.27
2022-09-28T00:09:47.078Z,10.26
2022-09-28T00:14:03.450Z,10.23
2022-09-28T00:18:14.997Z,10.13
2022-09-28T00:22:26.612Z,10.06
2022-09-28T00:26:41.049Z,9.91
2022-09-28T00:30:55.660Z,9.75
2022-09-28T00:35:07.489Z,9.58
2022-09-28T00:39:19.257Z,9.46
2022-09-28T00:43:30.819Z,9.33
2022-09-28T00:47:42.259Z,9.29
2022-09-28T00:51:54.572Z,9.25
2022-09-28T00:56:12.014Z,9.29
2022-09-28T01:00:23.990Z,9.42
2022-09-28T01:04:36.621Z,9.46
2022-09-28T01:08:51.675Z,9.50
2022-09-28T01:13:03.651Z,9.53
2022-09-28T01:17:18.087Z,9.54
2022-09-28T01:22:18.324Z,9.58
2022-09-28T01:26:36.327Z,9.51
2022-09-28T01:31:09.702Z,9.47
2022-09-28T01:35:35.548Z,9.37
2022-09-28T01:39:50.062Z,9.23
2022-09-28T01:44:04.760Z,9.14
2022-09-28T01:48:55.238Z,9.01
2022-09-28T01:53:17.240Z,8.88
2022-09-28T01:57:44.851Z,8.80
2022-09-28T02:02:12.800Z,8.72
2022-09-28T02:06:38.211Z,8.67
2022-09-28T02:11:06.140Z,8.71
2022-09-28T02:15:27.916Z,8.79
2022-09-28T02:19:41.312Z,8.81
2022-09-28T02:23:59.441Z,8.89
2022-09-28T02:28:16.120Z,9.02
2022-09-28T02:32:30.786Z,9.11
2022-09-28T02:36:44.942Z,9.19
2022-09-28T02:41:22.111Z,9.21
2022-09-28T02:45:43.447Z,9.27
2022-09-28T02:50:43.168Z,9.32
2022-09-28T02:55:12.973Z,9.36
2022-09-28T02:59:33.340Z,9.39
2022-09-28T03:04:16.965Z,9.45
2022-09-28T03:08:49.000Z,9.41
2022-09-28T03:13:03.220Z,9.43
2022-09-28T03:17:14.934Z,9.46
2022-09-28T03:21:26.663Z,9.48
2022-09-28T03:25:38.215Z,9.48
2022-09-28T03:29:49.981Z,9.48
2022-09-28T03:34:01.943Z,9.53
2022-09-28T03:38:13.655Z,9.56
2022-09-28T03:42:27.379Z,9.58
2022-09-28T03:46:39.261Z,9.58
2022-09-28T03:50:59.173Z,9.61
2022-09-28T03:55:11.097Z,9.61
2022-09-28T03:59:23.777Z,9.62
2022-09-28T04:03:35.625Z,9.59
2022-09-28T04:07:47.255Z,9.56
2022-09-28T04:12:04.376Z,9.61
2022-09-28T04:16:18.563Z,9.55
2022-09-28T04:20:45.393Z,9.56
2022-09-28T04:24:58.078Z,9.46
2022-09-28T04:29:16.723Z,9.48
2022-09-28T04:33:33.520Z,9.31
2022-09-28T04:37:45.200Z,9.16
2022-09-28T04:41:56.809Z,8.97
2022-09-28T04:46:10.621Z,8.85
2022-09-28T04:50:28.412Z,8.70
2022-09-28T04:55:01.786Z,8.58
2022-09-28T04:59:13.602Z,8.52
2022-09-28T05:03:27.038Z,8.37
2022-09-28T05:08:02.097Z,8.27
2022-09-28T05:12:13.881Z,8.23
2022-09-28T05:16:26.760Z,8.09
2022-09-28T05:21:11.198Z,8.04
2022-09-28T05:25:23.265Z,7.98
2022-09-28T05:29:47.623Z,7.94
2022-09-28T05:34:18.040Z,7.87
2022-09-28T05:38:30.642Z,7.85
2022-09-28T05:42:42.370Z,7.82
2022-09-28T05:46:54.773Z,7.81
2022-09-28T05:51:07.630Z,7.84
2022-09-28T05:55:19.929Z,7.77
2022-09-28T05:59:31.600Z,7.82
2022-09-28T06:03:43.319Z,7.81
2022-09-28T06:07:57.336Z,7.87
2022-09-28T06:12:09.399Z,8.04
2022-09-28T06:16:28.189Z,8.14
2022-09-28T06:20:43.450Z,8.60
2022-09-28T06:25:02.034Z,10.00
2022-09-28T06:29:19.908Z,10.78
2022-09-28T06:33:31.933Z,10.64
2022-09-28T06:37:45.016Z,10.40
2022-09-28T06:41:57.045Z,10.21
2022-09-28T06:46:10.489Z,10.15
2022-09-28T06:50:40.550Z,10.20
2022-09-28T06:55:10.815Z,10.48
2022-09-28T06:59:27.590Z,10.68
2022-09-28T07:03:40.581Z,10.91
2022-09-28T07:08:11.348Z,11.13
2022-09-28T07:12:52.263Z,11.10
2022-09-28T07:17:18.771Z,10.95
2022-09-28T07:21:30.813Z,10.87
2022-09-28T07:25:47.949Z,10.83
2022-09-28T07:30:16.608Z,10.97
2022-09-28T07:34:48.601Z,11.24
2022-09-28T07:39:09.076Z,11.59
2022-09-28T07:43:21.801Z,12.81
2022-09-28T07:47:35.714Z,14.73
2022-09-28T07:52:06.177Z,16.32
2022-09-28T07:56:23.724Z,17.68
2022-09-28T08:01:11.909Z,19.04
2022-09-28T08:05:24.580Z,20.09
2022-09-28T08:09:36.426Z,20.71
2022-09-28T08:14:06.577Z,20.83
2022-09-28T08:18:36.971Z,20.69
2022-09-28T08:22:49.667Z,21.04
2022-09-28T08:27:01.345Z,21.83
2022-09-28T08:31:15.526Z,21.76
2022-09-28T08:35:57.775Z,21.96
2022-09-28T08:40:34.943Z,22.82
2022-09-28T08:45:08.037Z,22.87
2022-09-28T08:49:47.569Z,22.48
2022-09-28T08:54:46.082Z,22.86
2022-09-28T08:59:13.708Z,23.74
2022-09-28T09:03:35.758Z,24.58
2022-09-28T09:08:50.063Z,24.94
2022-09-28T09:13:19.172Z,24.57
2022-09-28T09:17:39.166Z,24.43
2022-09-28T09:22:28.266Z,24.01
2022-09-28T09:27:07.076Z,24.17
2022-09-28T09:31:40.796Z,24.26
2022-09-28T09:36:11.999Z,23.68
2022-09-28T09:41:04.334Z,24.20
2022-09-28T09:46:03.801Z,24.74
2022-09-28T09:50:30.182Z,25.27
2022-09-28T09:55:04.274Z,25.96
2022-09-28T09:59:41.439Z,26.04
2022-09-28T10:04:15.718Z,25.19
2022-09-28T10:08:28.985Z,25.10
2022-09-28T10:12:41.486Z,24.19
2022-09-28T10:16:56.686Z,22.67
2022-09-28T10:21:28.898Z,21.66
2022-09-28T10:25:46.560Z,21.04
2022-09-28T10:30:02.992Z,21.32
2022-09-28T10:34:17.485Z,22.12
2022-09-28T10:38:30.906Z,23.31
2022-09-28T10:42:59.335Z,23.37
2022-09-28T10:47:17.085Z,22.88
2022-09-28T10:51:56.578Z,21.99
2022-09-28T10:56:21.199Z,21.41
2022-09-28T11:00:41.366Z,20.65
2022-09-28T11:05:06.726Z,20.66
2022-09-28T11:09:38.891Z,20.96
2022-09-28T11:14:03.510Z,21.64
2022-09-28T11:18:31.433Z,21.21
2022-09-28T11:22:52.335Z,20.59
2022-09-28T11:27:06.066Z,21.42
2022-09-28T11:31:28.093Z,22.60
2022-09-28T11:35:56.963Z,23.51
2022-09-28T11:40:28.574Z,24.44
2022-09-28T11:44:46.437Z,25.16
2022-09-28T11:49:14.488Z,24.73
2022-09-28T11:54:14.173Z,23.77
2022-09-28T11:58:35.102Z,22.70
2022-09-28T12:03:00.571Z,22.21
2022-09-28T12:07:16.555Z,21.81
2022-09-28T12:11:36.380Z,21.45
2022-09-28T12:20:42.234Z,20.24
2022-09-28T12:24:57.609Z,19.71
2022-09-28T12:29:18.478Z,19.39
2022-09-28T12:33:30.125Z,19.52
2022-09-28T12:37:51.465Z,19.68
2022-09-28T12:42:44.276Z,19.92
2022-09-28T12:47:16.978Z,20.10
2022-09-28T12:51:28.485Z,20.14
2022-09-28T12:55:56.159Z,20.11
2022-09-28T13:00:18.639Z,19.83
2022-09-28T13:04:30.194Z,19.43
2022-09-28T13:08:55.204Z,19.15
2022-09-28T13:13:12.721Z,19.03
2022-09-28T13:17:46.031Z,18.86
2022-09-28T13:22:01.231Z,18.61
2022-09-28T13:26:15.652Z,18.52
2022-09-28T13:30:27.558Z,18.41
2022-09-28T13:34:39.701Z,18.18
2022-09-28T13:38:52.447Z,17.46
2022-09-28T13:43:28.531Z,16.93
2022-09-28T13:47:59.886Z,16.50
2022-09-28T13:52:45.576Z,16.59
2022-09-28T13:57:13.170Z,16.79
2022-09-28T14:01:40.954Z,16.76
2022-09-28T14:06:21.533Z,16.94
2022-09-28T14:10:46.747Z,17.05
2022-09-28T14:14:58.587Z,17.01
2022-09-28T14:19:20.897Z,16.97
2022-09-28T14:24:00.045Z,16.67
2022-09-28T14:28:23.993Z,16.70
2022-09-28T14:32:37.403Z,16.73
2022-09-28T14:37:07.905Z,16.79
2022-09-28T14:41:34.409Z,16.60
2022-09-28T14:45:46.043Z,16.41
2022-09-28T14:50:03.107Z,16.41
2022-09-28T14:54:19.877Z,16.43
2022-09-28T14:58:33.566Z,16.29
2022-09-28T15:02:52.314Z,16.22
2022-09-28T15:07:03.876Z,16.04
2022-09-28T15:11:23.593Z,15.96
2022-09-28T15:15:38.701Z,15.90
2022-09-28T15:20:12.155Z,15.83
2022-09-28T15:24:32.516Z,15.71
2022-09-28T15:28:45.218Z,15.69
2022-09-28T15:33:18.214Z,15.64
2022-09-28T15:37:40.262Z,15.68
2022-09-28T15:41:52.518Z,15.71
2022-09-28T15:46:07.706Z,15.75
2022-09-28T15:50:26.823Z,15.74
2022-09-28T15:54:44.210Z,15.69
2022-09-28T15:59:25.405Z,15.69
2022-09-28T16:03:37.460Z,15.58
2022-09-28T16:07:56.051Z,15.53
2022-09-28T16:12:11.419Z,15.45
2022-09-28T16:16:29.948Z,15.31
2022-09-28T16:20:42.528Z,15.22
2022-09-28T16:24:59.968Z,15.16
2022-09-28T16:29:28.320Z,15.25
2022-09-28T16:33:46.565Z,15.19
2022-09-28T16:38:10.820Z,15.01
2022-09-28T16:42:22.653Z,14.80
2022-09-28T16:46:37.576Z,14.55
2022-09-28T16:50:50.390Z,14.57
2022-09-28T16:59:48.604Z,14.41
2022-09-28T17:04:00.169Z,14.31
2022-09-28T17:08:17.606Z,14.21
2022-09-28T17:12:29.526Z,14.12
2022-09-28T17:21:16.223Z,13.95
2022-09-28T17:25:27.917Z,13.80
2022-09-28T17:29:39.705Z,13.63
2022-09-28T17:33:52.115Z,13.57
2022-09-28T17:38:03.669Z,13.48
2022-09-28T17:42:17.122Z,13.33
2022-09-28T17:46:38.665Z,13.27
2022-09-28T17:50:50.653Z,13.13
2022-09-28T17:55:02.214Z,13.06
2022-09-28T17:59:16.934Z,12.92
2022-09-28T18:03:28.522Z,13.07
2022-09-28T18:07:45.413Z,12.97
2022-09-28T18:12:00.920Z,12.79
2022-09-28T18:16:14.275Z,12.64
2022-09-28T18:20:25.927Z,12.57
2022-09-28T18:24:37.507Z,12.48
2022-09-28T18:28:49.040Z,12.37
2022-09-28T18:33:00.580Z,12.28
2022-09-28T18:37:12.111Z,12.15
2022-09-28T18:41:24.206Z,12.02
2022-09-28T18:45:36.191Z,11.91
2022-09-28T18:49:47.765Z,11.77
2022-09-28T18:54:06.560Z,11.72
2022-09-28T18:58:18.497Z,11.58
2022-09-28T19:02:30.095Z,11.60
2022-09-28T19:06:44.237Z,11.52
2022-09-28T19:11:10.582Z,11.48
2022-09-28T19:15:22.705Z,11.40
2022-09-28T19:19:34.200Z,11.34
2022-09-28T19:23:49.264Z,11.23
2022-09-28T19:28:01.561Z,11.16
2022-09-28T19:32:13.170Z,11.09
2022-09-28T19:36:28.319Z,11.02
2022-09-28T19:40:39.811Z,10.93
2022-09-28T19:44:51.327Z,10.86
2022-09-28T19:49:14.110Z,10.81
2022-09-28T19:53:27.257Z,10.70
2022-09-28T19:57:38.742Z,10.64
2022-09-28T20:01:52.923Z,10.62
2022-09-28T20:06:05.214Z,10.58
2022-09-28T20:10:16.763Z,10.51
2022-09-28T20:14:33.057Z,10.46
2022-09-28T20:18:50.276Z,10.41
2022-09-28T20:23:03.029Z,10.37
2022-09-28T20:27:14.490Z,10.34
2022-09-28T20:31:26.102Z,10.23
2022-09-28T20:35:40.338Z,10.27
2022-09-28T20:39:53.210Z,10.23
2022-09-28T20:44:06.494Z,10.03
2022-09-28T20:48:18.874Z,10.07
2022-09-28T20:52:30.402Z,9.90
2022-09-28T20:56:41.891Z,9.91
2022-09-28T21:01:01.377Z,9.69
2022-09-28T21:05:12.940Z,9.75
2022-09-28T21:09:24.374Z,9.61
2022-09-28T21:13:35.819Z,9.46
2022-09-28T21:17:47.318Z,9.57
2022-09-28T21:21:58.812Z,9.50
2022-09-28T21:26:16.216Z,9.47
2022-09-28T21:30:27.699Z,9.28
2022-09-28T21:34:39.216Z,9.36
2022-09-28T21:38:50.687Z,9.18
2022-09-28T21:43:02.217Z,9.16
2022-09-28T21:47:13.698Z,9.03
2022-09-28T21:51:25.347Z,8.99
2022-09-28T21:55:37.427Z,9.16
2022-09-28T21:59:48.906Z,9.13
2022-09-28T22:04:00.779Z,9.08
2022-09-28T22:08:12.415Z,9.03
2022-09-28T22:12:23.892Z,8.81
2022-09-28T22:16:35.590Z,8.92
2022-09-28T22:20:47.073Z,8.80
2022-09-28T22:24:58.639Z,8.82
2022-09-28T22:29:10.691Z,8.78
2022-09-28T22:33:22.865Z,8.69
2022-09-28T22:37:34.322Z,8.56
2022-09-28T22:41:45.993Z,8.63
2022-09-28T22:46:27.786Z,8.63
2022-09-28T22:50:46.928Z,8.58
2022-09-28T22:54:58.373Z,8.51
2022-09-28T22:59:11.525Z,8.46
2022-09-28T23:03:23.579Z,8.46
2022-09-28T23:07:35.030Z,8.38
2022-09-28T23:11:46.661Z,8.33
2022-09-28T23:16:00.323Z,8.29
2022-09-28T23:20:11.810Z,8.24
2022-09-28T23:24:23.455Z,8.20
2022-09-28T23:28:34.997Z,8.12
2022-09-28T23:32:46.541Z,8.11
2022-09-28T23:36:57.987Z,8.08
2022-09-28T23:41:10.055Z,8.05
2022-09-28T23:45:21.626Z,7.96
2022-09-28T23:49:33.130Z,7.95
2022-09-28T23:53:45.497Z,7.88
2022-09-28T23:57:58.585Z,7.89
